createdAt,value
2023-02-25T00:02:02.812Z,2.47
2023-02-25T00:04:31.430Z,2.37
2023-02-25T00:06:59.091Z,1.87
2023-02-25T00:09:27.052Z,2.07
2023-02-25T00:11:54.662Z,1.93
2023-02-25T00:14:22.425Z,1.80
2023-02-25T00:16:56.061Z,1.67
2023-02-25T00:19:25.130Z,1.90
2023-02-25T00:21:55.249Z,1.80
2023-02-25T00:24:22.666Z,1.77
2023-02-25T00:26:50.450Z,1.40
2023-02-25T00:29:18.532Z,1.73
2023-02-25T00:31:46.782Z,1.10
2023-02-25T00:34:15.474Z,1.13
2023-02-25T00:36:42.948Z,1.30
2023-02-25T00:39:16.900Z,1.10
2023-02-25T00:41:47.512Z,1.53
2023-02-25T00:44:14.920Z,1.10
2023-02-25T00:46:44.899Z,1.53
2023-02-25T00:49:31.488Z,1.23
2023-02-25T00:52:00.483Z,1.00
2023-02-25T00:54:28.095Z,1.40
2023-02-25T00:57:02.877Z,1.10
2023-02-25T00:59:32.954Z,0.90
2023-02-25T01:02:03.218Z,1.37
2023-02-25T01:04:31.312Z,1.43
2023-02-25T01:07:03.770Z,1.30
2023-02-25T01:09:34.170Z,1.57
2023-02-25T01:12:04.345Z,1.13
2023-02-25T01:14:31.891Z,1.10
2023-02-25T01:17:02.255Z,1.40
2023-02-25T01:19:31.109Z,1.10
2023-02-25T01:21:59.197Z,0.90
2023-02-25T01:24:29.718Z,1.30
2023-02-25T01:27:00.766Z,1.23
2023-02-25T01:29:34.862Z,1.67
2023-02-25T01:32:04.005Z,1.60
2023-02-25T01:34:31.948Z,1.70
2023-02-25T01:37:02.776Z,1.90
2023-02-25T01:39:32.330Z,1.70
2023-02-25T01:42:04.276Z,1.73
2023-02-25T01:44:58.165Z,1.60
2023-02-25T01:47:27.408Z,1.93
2023-02-25T01:49:55.524Z,2.17
2023-02-25T01:52:25.623Z,1.80
2023-02-25T01:54:55.966Z,1.60
2023-02-25T01:57:24.724Z,1.50
2023-02-25T01:59:54.320Z,1.67
2023-02-25T02:02:34.018Z,1.37
2023-02-25T02:05:10.221Z,1.07
2023-02-25T02:07:43.723Z,1.67
2023-02-25T02:10:13.511Z,1.33
2023-02-25T02:12:44.081Z,1.23
2023-02-25T02:15:14.323Z,0.90
2023-02-25T02:17:59.354Z,0.80
2023-02-25T02:20:38.060Z,0.60
2023-02-25T02:23:30.306Z,0.60
2023-02-25T02:26:16.197Z,0.60
2023-02-25T02:29:22.586Z,0.73
2023-02-25T02:32:31.667Z,0.80
2023-02-25T02:35:15.566Z,0.70
2023-02-25T02:37:59.696Z,0.60
2023-02-25T02:40:39.063Z,0.70
2023-02-25T02:43:19.289Z,0.60
2023-02-25T02:46:01.603Z,0.70
2023-02-25T02:48:36.766Z,0.60
2023-02-25T02:51:10.829Z,0.70
2023-02-25T02:53:44.083Z,0.63
2023-02-25T02:56:14.939Z,0.60
2023-02-25T02:58:55.970Z,0.67
2023-02-25T03:01:34.265Z,0.60
2023-02-25T03:04:06.112Z,0.60
2023-02-25T03:06:42.120Z,0.70
2023-02-25T03:09:17.152Z,0.87
2023-02-25T03:11:44.704Z,0.80
2023-02-25T03:14:13.960Z,0.60
2023-02-25T03:16:57.912Z,0.70
2023-02-25T03:19:42.526Z,0.70
2023-02-25T03:22:12.937Z,0.67
2023-02-25T03:24:52.693Z,0.47
2023-02-25T03:27:35.645Z,0.77
2023-02-25T03:30:17.365Z,0.63
2023-02-25T03:32:57.221Z,0.60
2023-02-25T03:35:26.962Z,0.40
2023-02-25T03:38:01.288Z,0.40
2023-02-25T03:40:29.801Z,0.23
2023-02-25T03:43:08.377Z,0.30
2023-02-25T03:45:39.446Z,0.30
2023-02-25T03:48:09.407Z,0.30
2023-02-25T03:50:43.870Z,0.40
2023-02-25T03:53:13.279Z,0.40
2023-02-25T03:55:54.247Z,0.30
2023-02-25T03:58:21.983Z,0.30
2023-02-25T04:00:56.064Z,0.20
2023-02-25T04:03:25.482Z,0.20
2023-02-25T04:05:53.450Z,0.20
2023-02-25T04:08:20.820Z,0.10
2023-02-25T04:10:52.270Z,0.13
2023-02-25T04:13:20.904Z,0.10
2023-02-25T04:15:50.017Z,0.20
2023-02-25T04:18:17.992Z,0.23
2023-02-25T04:20:45.393Z,0.10
2023-02-25T04:23:14.501Z,0.20
2023-02-25T04:25:42.191Z,0.20
2023-02-25T04:28:10.436Z,0.20
2023-02-25T04:30:37.819Z,0.30
2023-02-25T04:33:05.164Z,0.27
2023-02-25T04:35:32.674Z,0.23
2023-02-25T04:37:59.964Z,0.30
2023-02-25T04:40:27.511Z,0.30
2023-02-25T04:42:57.318Z,0.20
2023-02-25T04:45:27.119Z,0.30
2023-02-25T04:47:57.710Z,0.40
2023-02-25T04:50:25.437Z,0.30
2023-02-25T04:52:52.905Z,0.30
2023-02-25T04:55:20.405Z,0.40
2023-02-25T04:57:47.906Z,0.50
2023-02-25T05:00:24.254Z,0.40
2023-02-25T05:02:51.655Z,0.17
2023-02-25T05:05:19.160Z,0.20
2023-02-25T05:07:46.624Z,0.20
2023-02-25T05:10:15.162Z,0.30
2023-02-25T05:12:42.728Z,0.40
2023-02-25T05:15:10.940Z,0.40
2023-02-25T05:17:38.624Z,0.20
2023-02-25T05:20:13.293Z,0.30
2023-02-25T05:22:41.928Z,0.30
2023-02-25T05:25:10.541Z,0.30
2023-02-25T05:27:38.136Z,0.27
2023-02-25T05:30:06.314Z,0.20
2023-02-25T05:32:34.149Z,0.20
2023-02-25T05:35:04.591Z,0.30
2023-02-25T05:37:32.892Z,0.30
2023-02-25T05:40:01.119Z,0.20
2023-02-25T05:42:29.088Z,0.40
2023-02-25T05:44:56.351Z,0.40
2023-02-25T05:47:23.629Z,0.20
2023-02-25T05:49:51.080Z,0.40
2023-02-25T05:52:18.533Z,0.40
2023-02-25T05:54:45.957Z,0.40
2023-02-25T05:57:13.560Z,1.40
2023-02-25T05:59:40.780Z,1.63
2023-02-25T06:02:08.199Z,0.90
2023-02-25T06:04:35.518Z,0.50
2023-02-25T06:07:04.265Z,0.30
2023-02-25T06:09:33.449Z,0.30
2023-02-25T06:12:01.020Z,0.30
2023-02-25T06:14:28.729Z,0.30
2023-02-25T06:16:56.891Z,0.10
2023-02-25T06:19:26.382Z,0.30
2023-02-25T06:21:55.855Z,0.50
2023-02-25T06:24:23.525Z,0.60
2023-02-25T06:26:51.454Z,0.20
2023-02-25T06:29:18.976Z,0.50
2023-02-25T06:31:46.648Z,0.30
2023-02-25T06:34:14.180Z,0.30
2023-02-25T06:36:41.775Z,0.50
2023-02-25T06:39:09.402Z,0.37
2023-02-25T06:41:36.864Z,0.50
2023-02-25T06:44:05.462Z,0.23
2023-02-25T06:46:32.830Z,0.40
2023-02-25T06:49:00.498Z,0.50
2023-02-25T06:51:27.960Z,0.40
2023-02-25T06:53:55.744Z,0.50
2023-02-25T06:56:23.986Z,0.50
2023-02-25T06:58:53.391Z,0.40
2023-02-25T07:01:20.918Z,0.47
2023-02-25T07:03:48.300Z,0.37
2023-02-25T07:06:16.107Z,0.33
2023-02-25T07:08:44.518Z,0.47
2023-02-25T07:11:15.136Z,0.40
2023-02-25T07:13:43.405Z,0.20
2023-02-25T07:16:15.509Z,0.20
2023-02-25T07:18:43.607Z,0.10
2023-02-25T07:21:14.939Z,0.23
2023-02-25T07:23:42.711Z,0.20
2023-02-25T07:26:12.289Z,0.27
2023-02-25T07:28:40.612Z,0.30
2023-02-25T07:31:17.550Z,0.40
2023-02-25T07:33:45.428Z,0.30
2023-02-25T07:36:13.310Z,0.20
2023-02-25T07:38:40.826Z,0.40
2023-02-25T07:41:14.592Z,0.50
2023-02-25T07:43:42.305Z,0.40
2023-02-25T07:46:10.393Z,0.40
2023-02-25T07:48:37.703Z,0.30
2023-02-25T07:51:07.845Z,0.40
2023-02-25T07:53:35.576Z,0.40
2023-02-25T07:56:03.573Z,0.57
2023-02-25T07:58:31.037Z,0.50
2023-02-25T08:00:58.750Z,0.50
2023-02-25T08:03:26.599Z,0.50
2023-02-25T08:05:54.331Z,0.40
2023-02-25T08:08:22.290Z,0.60
2023-02-25T08:10:50.178Z,0.80
2023-02-25T08:13:17.594Z,0.50
2023-02-25T08:15:45.244Z,0.90
2023-02-25T08:18:12.593Z,0.50
2023-02-25T08:20:40.112Z,0.70
2023-02-25T08:23:07.566Z,0.43
2023-02-25T08:25:34.885Z,0.83
2023-02-25T08:28:02.385Z,0.50
2023-02-25T08:30:30.003Z,0.70
2023-02-25T08:32:58.669Z,0.70
2023-02-25T08:35:26.752Z,0.70
2023-02-25T08:37:54.457Z,0.60
2023-02-25T08:40:23.674Z,0.60
2023-02-25T08:42:51.312Z,0.73
2023-02-25T08:45:18.743Z,1.00
2023-02-25T08:47:46.248Z,0.70
2023-02-25T08:50:13.646Z,1.10
2023-02-25T08:52:42.307Z,2.07
2023-02-25T08:55:11.756Z,1.10
2023-02-25T08:57:39.183Z,0.90
2023-02-25T09:00:09.573Z,0.70
2023-02-25T09:02:38.922Z,0.70
2023-02-25T09:05:06.876Z,0.80
2023-02-25T09:07:34.595Z,0.70
2023-02-25T09:10:01.993Z,1.30
2023-02-25T09:12:30.686Z,1.20
2023-02-25T09:14:58.039Z,1.10
2023-02-25T09:17:25.665Z,1.10
2023-02-25T09:19:53.331Z,1.10
2023-02-25T09:22:20.687Z,1.63
2023-02-25T09:24:48.481Z,1.00
2023-02-25T09:27:15.839Z,1.10
2023-02-25T09:29:43.577Z,1.10
2023-02-25T09:32:21.361Z,1.10
2023-02-25T09:34:49.734Z,1.20
2023-02-25T09:37:19.961Z,1.20
2023-02-25T09:39:47.507Z,1.30
2023-02-25T09:42:21.943Z,1.10
2023-02-25T09:44:57.628Z,1.50
2023-02-25T09:47:46.222Z,1.20
2023-02-25T09:50:42.144Z,1.87
2023-02-25T09:53:18.371Z,1.57
2023-02-25T09:55:53.167Z,1.63
2023-02-25T09:58:40.802Z,1.20
2023-02-25T10:01:11.060Z,1.30
2023-02-25T10:03:47.459Z,1.33
2023-02-25T10:06:30.176Z,1.33
2023-02-25T10:09:28.203Z,1.50
2023-02-25T10:12:21.477Z,1.63
2023-02-25T10:14:54.981Z,2.67
2023-02-25T10:17:46.626Z,1.73
2023-02-25T10:20:33.589Z,1.27
2023-02-25T10:23:03.958Z,1.50
2023-02-25T10:25:37.510Z,1.23
2023-02-25T10:28:11.873Z,1.20
2023-02-25T10:30:59.408Z,0.97
2023-02-25T10:33:28.642Z,1.03
2023-02-25T10:36:10.297Z,0.83
2023-02-25T10:38:49.093Z,0.90
2023-02-25T10:41:17.157Z,1.00
2023-02-25T10:43:45.737Z,1.00
2023-02-25T10:46:16.065Z,1.00
2023-02-25T10:48:50.709Z,1.13
2023-02-25T10:51:18.029Z,1.10
2023-02-25T10:53:57.832Z,1.17
2023-02-25T10:56:28.425Z,1.30
2023-02-25T10:59:24.889Z,1.00
2023-02-25T11:01:53.749Z,0.90
2023-02-25T11:04:28.377Z,0.77
2023-02-25T11:06:55.804Z,0.80
2023-02-25T11:09:23.041Z,0.80
2023-02-25T11:11:53.349Z,0.73
2023-02-25T11:14:30.401Z,0.70
2023-02-25T11:17:08.647Z,1.10
2023-02-25T11:19:40.124Z,1.33
2023-02-25T11:22:21.063Z,0.93
2023-02-25T11:25:00.833Z,0.80
2023-02-25T11:27:39.316Z,1.00
2023-02-25T11:30:12.816Z,1.00
2023-02-25T11:32:55.495Z,1.13
2023-02-25T11:35:37.476Z,0.70
2023-02-25T11:38:28.196Z,1.10
2023-02-25T11:40:56.273Z,0.80
2023-02-25T11:43:27.242Z,0.70
2023-02-25T11:46:01.510Z,1.00
2023-02-25T11:48:30.672Z,0.90
2023-02-25T11:51:22.004Z,0.90
2023-02-25T11:54:14.485Z,0.77
2023-02-25T11:56:48.805Z,0.63
2023-02-25T11:59:37.346Z,0.70
2023-02-25T12:02:24.278Z,1.00
2023-02-25T12:05:16.784Z,0.70
2023-02-25T12:08:12.501Z,0.80
2023-02-25T12:10:52.736Z,1.40
2023-02-25T12:13:32.643Z,0.80
2023-02-25T12:16:24.692Z,0.80
2023-02-25T12:19:16.481Z,1.23
2023-02-25T12:22:05.070Z,0.63
2023-02-25T12:25:12.236Z,0.93
2023-02-25T12:28:01.305Z,0.93
2023-02-25T12:31:00.918Z,0.90
2023-02-25T12:33:48.384Z,0.90
2023-02-25T12:36:19.037Z,0.80
2023-02-25T12:39:08.241Z,1.17
2023-02-25T12:41:54.763Z,0.97
2023-02-25T12:44:45.490Z,0.90
2023-02-25T12:47:40.998Z,0.97
2023-02-25T12:50:26.042Z,0.77
2023-02-25T12:53:35.142Z,0.70
2023-02-25T12:56:27.064Z,0.80
2023-02-25T12:59:32.065Z,0.90
2023-02-25T13:02:18.522Z,0.60
2023-02-25T13:04:45.789Z,0.80
2023-02-25T13:07:30.827Z,0.87
2023-02-25T13:10:20.057Z,0.50
2023-02-25T13:13:14.523Z,0.60
2023-02-25T13:16:13.128Z,0.77
2023-02-25T13:18:51.010Z,0.60
2023-02-25T13:21:44.558Z,0.97
2023-02-25T13:24:34.104Z,0.90
2023-02-25T13:27:27.353Z,0.90
2023-02-25T13:30:26.697Z,0.83
2023-02-25T13:33:21.177Z,1.10
2023-02-25T13:36:12.654Z,0.67
2023-02-25T13:39:06.891Z,0.50
2023-02-25T13:41:42.346Z,0.80
2023-02-25T13:44:28.698Z,0.73
2023-02-25T13:47:31.128Z,0.83
2023-02-25T13:50:32.962Z,1.00
2023-02-25T13:53:07.178Z,0.63
2023-02-25T13:55:59.450Z,1.10
2023-02-25T13:58:35.949Z,1.00
2023-02-25T14:01:29.959Z,0.60
2023-02-25T14:04:38.421Z,0.80
2023-02-25T14:07:11.618Z,0.87
2023-02-25T14:10:00.988Z,0.83
2023-02-25T14:13:07.177Z,0.80
2023-02-25T14:16:09.604Z,1.00
2023-02-25T14:19:01.261Z,0.80
2023-02-25T14:21:40.829Z,1.00
2023-02-25T14:24:24.506Z,0.73
2023-02-25T14:27:28.818Z,0.73
2023-02-25T14:30:02.958Z,1.23
2023-02-25T14:32:46.196Z,0.70
2023-02-25T14:35:25.399Z,1.10
2023-02-25T14:38:12.995Z,0.70
2023-02-25T14:40:56.497Z,0.80
2023-02-25T14:43:32.374Z,0.97
2023-02-25T14:46:23.248Z,0.70
2023-02-25T14:49:02.617Z,1.00
2023-02-25T14:51:39.160Z,1.30
2023-02-25T14:54:31.595Z,1.00
2023-02-25T14:57:25.917Z,1.20
2023-02-25T15:00:27.587Z,1.20
2023-02-25T15:03:46.866Z,1.00
2023-02-25T15:06:36.584Z,1.07
2023-02-25T15:09:14.196Z,1.10
2023-02-25T15:12:10.567Z,1.10
2023-02-25T15:15:03.613Z,0.87
2023-02-25T15:18:02.437Z,1.00
2023-02-25T15:20:40.448Z,0.80
2023-02-25T15:23:09.446Z,1.00
2023-02-25T15:25:43.354Z,0.90
2023-02-25T15:28:29.251Z,1.10
2023-02-25T15:31:00.380Z,1.27
2023-02-25T15:33:42.387Z,1.17
2023-02-25T15:36:16.219Z,1.00
2023-02-25T15:38:48.918Z,0.80
2023-02-25T15:41:45.461Z,1.10
2023-02-25T15:44:12.744Z,1.30
2023-02-25T15:46:50.608Z,0.70
2023-02-25T15:49:34.531Z,0.87
2023-02-25T15:52:04.727Z,0.97
2023-02-25T15:54:32.139Z,0.80
2023-02-25T15:57:23.428Z,0.90
2023-02-25T15:59:55.538Z,0.73
2023-02-25T16:02:34.963Z,0.80
2023-02-25T16:05:18.839Z,0.83
2023-02-25T16:07:50.805Z,1.07
2023-02-25T16:10:43.837Z,1.17
2023-02-25T16:13:18.294Z,1.10
2023-02-25T16:15:52.926Z,0.87
2023-02-25T16:18:45.208Z,0.93
2023-02-25T16:21:26.584Z,1.00
2023-02-25T16:23:54.509Z,1.60
2023-02-25T16:26:51.209Z,1.40
2023-02-25T16:29:51.737Z,1.70
2023-02-25T16:32:22.079Z,1.33
2023-02-25T16:34:50.180Z,1.47
2023-02-25T16:37:41.682Z,1.60
2023-02-25T16:40:29.287Z,1.40
2023-02-25T16:42:59.590Z,1.03
2023-02-25T16:45:33.977Z,1.50
2023-02-25T16:48:06.649Z,1.30
2023-02-25T16:50:36.068Z,1.10
2023-02-25T16:53:04.154Z,1.20
2023-02-25T16:55:39.985Z,1.20
2023-02-25T16:58:21.936Z,0.90
2023-02-25T17:00:55.363Z,0.63
2023-02-25T17:03:26.207Z,0.60
2023-02-25T17:06:14.900Z,1.00
2023-02-25T17:08:47.547Z,0.80
2023-02-25T17:11:23.945Z,0.70
2023-02-25T17:13:55.647Z,0.77
2023-02-25T17:16:36.536Z,0.80
2023-02-25T17:19:08.178Z,0.90
2023-02-25T17:21:44.195Z,1.13
2023-02-25T17:24:15.247Z,1.37
2023-02-25T17:26:44.898Z,1.93
2023-02-25T17:29:15.184Z,3.57
2023-02-25T17:31:54.048Z,2.37
2023-02-25T17:34:33.909Z,1.47
2023-02-25T17:37:05.546Z,1.37
2023-02-25T17:39:33.578Z,1.37
2023-02-25T17:42:00.971Z,1.70
2023-02-25T17:44:39.065Z,1.27
2023-02-25T17:47:09.524Z,2.00
2023-02-25T17:49:38.244Z,1.20
2023-02-25T17:52:19.506Z,1.40
2023-02-25T17:54:51.169Z,1.20
2023-02-25T17:57:20.603Z,1.90
2023-02-25T17:59:51.986Z,1.60
2023-02-25T18:02:31.877Z,1.60
2023-02-25T18:05:22.304Z,2.20
2023-02-25T18:08:07.710Z,2.33
2023-02-25T18:10:35.414Z,2.13
2023-02-25T18:13:04.858Z,1.83
2023-02-25T18:15:34.221Z,2.50
2023-02-25T18:18:04.671Z,1.87
2023-02-25T18:20:32.933Z,1.07
2023-02-25T18:23:07.368Z,0.93
2023-02-25T18:25:38.361Z,0.90
2023-02-25T18:28:12.279Z,1.37
2023-02-25T18:30:39.765Z,4.27
2023-02-25T18:33:08.492Z,2.80
2023-02-25T18:35:40.121Z,2.77
2023-02-25T18:38:09.858Z,2.10
2023-02-25T18:40:40.582Z,0.97
2023-02-25T18:43:12.111Z,1.90
2023-02-25T18:45:39.566Z,1.90
2023-02-25T18:48:07.032Z,2.83
2023-02-25T18:50:34.623Z,1.00
2023-02-25T18:53:02.380Z,0.70
2023-02-25T18:55:32.998Z,0.63
2023-02-25T18:58:01.459Z,0.43
2023-02-25T19:00:29.180Z,0.60
2023-02-25T19:03:01.925Z,1.00
2023-02-25T19:05:29.831Z,1.60
2023-02-25T19:07:57.592Z,0.60
2023-02-25T19:10:30.931Z,0.60
2023-02-25T19:13:14.686Z,0.80
2023-02-25T19:15:42.121Z,1.17
2023-02-25T19:18:14.762Z,0.50
2023-02-25T19:20:44.074Z,0.50
2023-02-25T19:23:17.205Z,0.77
2023-02-25T19:25:46.647Z,0.50
2023-02-25T19:28:14.048Z,0.60
2023-02-25T19:30:43.319Z,0.80
2023-02-25T19:33:12.466Z,0.90
2023-02-25T19:35:42.953Z,0.57
2023-02-25T19:38:18.752Z,0.70
2023-02-25T19:40:47.632Z,0.60
2023-02-25T19:43:16.365Z,0.60
2023-02-25T19:45:44.324Z,0.80
2023-02-25T19:48:17.231Z,0.70
2023-02-25T19:50:45.018Z,0.70
2023-02-25T19:53:12.444Z,0.63
2023-02-25T19:55:42.295Z,0.87
2023-02-25T19:58:09.926Z,0.80
2023-02-25T20:00:38.448Z,1.00
2023-02-25T20:03:05.981Z,0.60
2023-02-25T20:05:34.942Z,0.90
2023-02-25T20:08:02.413Z,0.50
2023-02-25T20:10:30.080Z,0.90
2023-02-25T20:12:57.354Z,1.03
2023-02-25T20:15:27.360Z,1.33
2023-02-25T20:17:55.672Z,1.03
2023-02-25T20:20:23.976Z,0.87
2023-02-25T20:22:51.742Z,0.73
2023-02-25T20:25:19.405Z,1.50
2023-02-25T20:27:46.910Z,0.63
2023-02-25T20:30:16.569Z,1.20
2023-02-25T20:32:45.163Z,0.83
2023-02-25T20:35:21.472Z,1.10
2023-02-25T20:37:58.096Z,1.00
2023-02-25T20:40:26.140Z,1.50
2023-02-25T20:42:53.724Z,1.27
2023-02-25T20:45:21.588Z,1.17
2023-02-25T20:47:49.369Z,1.30
2023-02-25T20:50:19.278Z,1.20
2023-02-25T20:52:46.801Z,1.10
2023-02-25T20:55:14.105Z,1.63
2023-02-25T20:57:41.612Z,1.50
2023-02-25T21:00:12.295Z,2.47
2023-02-25T21:02:39.709Z,1.77
2023-02-25T21:05:07.440Z,1.80
2023-02-25T21:07:34.745Z,1.57
2023-02-25T21:10:02.112Z,1.30
2023-02-25T21:12:29.755Z,0.97
2023-02-25T21:14:57.083Z,0.73
2023-02-25T21:17:24.665Z,1.13
2023-02-25T21:19:51.998Z,1.13
2023-02-25T21:22:19.473Z,4.00
2023-02-25T21:24:46.807Z,3.43
2023-02-25T21:27:14.367Z,2.27
2023-02-25T21:29:41.923Z,2.03
2023-02-25T21:32:09.861Z,3.83
2023-02-25T21:34:37.244Z,2.30
2023-02-25T21:37:05.126Z,4.53
2023-02-25T21:39:32.517Z,2.10
2023-02-25T21:42:00.294Z,5.67
2023-02-25T21:44:28.672Z,3.30
2023-02-25T21:47:03.228Z,1.73
2023-02-25T21:49:31.831Z,1.40
2023-02-25T21:51:59.781Z,1.27
2023-02-25T21:54:27.649Z,1.10
2023-02-25T21:56:57.354Z,1.40
2023-02-25T21:59:26.092Z,1.20
2023-02-25T22:01:53.914Z,3.77
2023-02-25T22:04:21.523Z,2.50
2023-02-25T22:06:49.295Z,1.57
2023-02-25T22:09:18.156Z,2.30
2023-02-25T22:11:45.663Z,3.57
2023-02-25T22:14:13.151Z,1.30
2023-02-25T22:16:41.077Z,1.50
2023-02-25T22:19:08.723Z,1.63
2023-02-25T22:21:36.190Z,1.50
2023-02-25T22:24:05.545Z,1.30
2023-02-25T22:26:35.153Z,1.20
2023-02-25T22:29:06.376Z,1.57
2023-02-25T22:31:35.361Z,1.50
2023-02-25T22:34:06.378Z,1.90
2023-02-25T22:36:33.877Z,1.70
2023-02-25T22:39:08.216Z,2.20
2023-02-25T22:41:36.880Z,1.90
2023-02-25T22:44:06.128Z,1.43
2023-02-25T22:46:38.982Z,1.40
2023-02-25T22:49:07.725Z,1.50
2023-02-25T22:51:42.057Z,1.50
2023-02-25T22:54:11.757Z,1.30
2023-02-25T22:56:39.840Z,1.50
2023-02-25T22:59:07.618Z,1.50
2023-02-25T23:01:35.715Z,1.40
2023-02-25T23:04:03.247Z,1.43
2023-02-25T23:06:43.028Z,1.57
2023-02-25T23:09:11.610Z,1.47
2023-02-25T23:11:41.232Z,1.30
2023-02-25T23:14:08.785Z,1.63
2023-02-25T23:16:42.210Z,1.43
2023-02-25T23:19:14.255Z,1.77
2023-02-25T23:21:41.599Z,1.50
2023-02-25T23:24:10.127Z,1.40
2023-02-25T23:26:40.433Z,1.47
2023-02-25T23:29:09.524Z,1.23
2023-02-25T23:31:41.209Z,1.53
2023-02-25T23:34:11.714Z,1.60
2023-02-25T23:36:42.454Z,1.50
2023-02-25T23:39:13.830Z,1.80
2023-02-25T23:41:42.192Z,1.60
2023-02-25T23:44:11.480Z,1.50
2023-02-25T23:46:39.570Z,1.40
2023-02-25T23:49:07.632Z,1.77
2023-02-25T23:51:36.073Z,1.73
2023-02-25T23:54:06.025Z,1.47
2023-02-25T23:56:35.192Z,1.60
2023-02-25T23:59:02.872Z,1.70
